sensor_id;sensor_type;location;lat;lon;timestamp;P1;durP1;ratioP1;P2;durP2;ratioP2
59458;SDS011;45269;43.568;22.244;2023-09-18T00:00:46;16.45;;;14.50;;
59458;SDS011;45269;43.568;22.244;2023-09-18T00:03:11;16.23;;;14.73;;
59458;SDS011;45269;43.568;22.244;2023-09-18T00:05:36;16.48;;;14.90;;
59458;SDS011;45269;43.568;22.244;2023-09-18T00:08:02;15.88;;;14.27;;
59458;SDS011;45269;43.568;22.244;2023-09-18T00:10:27;16.38;;;14.50;;
59458;SDS011;45269;43.568;22.244;2023-09-18T00:12:54;15.75;;;13.73;;
59458;SDS011;45269;43.568;22.244;2023-09-18T00:15:19;16.80;;;15.18;;
59458;SDS011;45269;43.568;22.244;2023-09-18T00:17:45;15.95;;;14.40;;
59458;SDS011;45269;43.568;22.244;2023-09-18T00:20:10;18.00;;;14.18;;
59458;SDS011;45269;43.568;22.244;2023-09-18T00:22:37;17.08;;;15.27;;
59458;SDS011;45269;43.568;22.244;2023-09-18T00:25:02;16.60;;;14.90;;
59458;SDS011;45269;43.568;22.244;2023-09-18T00:27:28;16.67;;;15.07;;
59458;SDS011;45269;43.568;22.244;2023-09-18T00:29:53;19.08;;;15.00;;
59458;SDS011;45269;43.568;22.244;2023-09-18T00:32:19;18.05;;;14.27;;
59458;SDS011;45269;43.568;22.244;2023-09-18T00:34:44;15.65;;;13.98;;
59458;SDS011;45269;43.568;22.244;2023-09-18T00:37:09;15.77;;;14.18;;
59458;SDS011;45269;43.568;22.244;2023-09-18T00:39:37;14.30;;;12.85;;
59458;SDS011;45269;43.568;22.244;2023-09-18T00:42:02;15.90;;;13.93;;
59458;SDS011;45269;43.568;22.244;2023-09-18T00:44:27;17.58;;;14.80;;
59458;SDS011;45269;43.568;22.244;2023-09-18T00:46:53;16.23;;;13.48;;
59458;SDS011;45269;43.568;22.244;2023-09-18T00:49:20;17.13;;;15.50;;
59458;SDS011;45269;43.568;22.244;2023-09-18T00:51:47;17.30;;;15.50;;
59458;SDS011;45269;43.568;22.244;2023-09-18T00:54:12;16.40;;;14.75;;
59458;SDS011;45269;43.568;22.244;2023-09-18T00:56:40;16.50;;;14.55;;
59458;SDS011;45269;43.568;22.244;2023-09-18T00:59:05;17.90;;;15.55;;
59458;SDS011;45269;43.568;22.244;2023-09-18T01:01:31;17.83;;;15.55;;
59458;SDS011;45269;43.568;22.244;2023-09-18T01:03:56;18.48;;;16.48;;
59458;SDS011;45269;43.568;22.244;2023-09-18T01:06:24;16.92;;;14.98;;
59458;SDS011;45269;43.568;22.244;2023-09-18T01:08:50;18.77;;;15.35;;
59458;SDS011;45269;43.568;22.244;2023-09-18T01:11:33;17.60;;;15.73;;
59458;SDS011;45269;43.568;22.244;2023-09-18T01:14:19;19.13;;;17.15;;
59458;SDS011;45269;43.568;22.244;2023-09-18T01:16:56;19.85;;;16.70;;
59458;SDS011;45269;43.568;22.244;2023-09-18T01:19:35;18.17;;;16.27;;
59458;SDS011;45269;43.568;22.244;2023-09-18T01:22:01;18.50;;;16.50;;
59458;SDS011;45269;43.568;22.244;2023-09-18T01:24:27;19.15;;;17.23;;
59458;SDS011;45269;43.568;22.244;2023-09-18T01:26:52;20.42;;;18.27;;
59458;SDS011;45269;43.568;22.244;2023-09-18T01:29:17;21.50;;;17.13;;
59458;SDS011;45269;43.568;22.244;2023-09-18T01:31:44;19.92;;;17.95;;
59458;SDS011;45269;43.568;22.244;2023-09-18T01:34:12;21.80;;;17.58;;
59458;SDS011;45269;43.568;22.244;2023-09-18T01:36:37;18.52;;;16.67;;
59458;SDS011;45269;43.568;22.244;2023-09-18T01:39:03;17.60;;;15.80;;
59458;SDS011;45269;43.568;22.244;2023-09-18T01:41:28;17.98;;;16.20;;
59458;SDS011;45269;43.568;22.244;2023-09-18T01:43:54;17.83;;;16.05;;
59458;SDS011;45269;43.568;22.244;2023-09-18T01:46:20;18.38;;;16.40;;
59458;SDS011;45269;43.568;22.244;2023-09-18T01:48:46;19.02;;;17.13;;
59458;SDS011;45269;43.568;22.244;2023-09-18T01:51:13;18.85;;;16.88;;
59458;SDS011;45269;43.568;22.244;2023-09-18T01:53:38;17.20;;;15.32;;
59458;SDS011;45269;43.568;22.244;2023-09-18T01:56:04;18.75;;;15.38;;
59458;SDS011;45269;43.568;22.244;2023-09-18T01:58:29;18.48;;;16.58;;
59458;SDS011;45269;43.568;22.244;2023-09-18T02:00:54;18.55;;;16.08;;
59458;SDS011;45269;43.568;22.244;2023-09-18T02:03:20;19.52;;;17.73;;
59458;SDS011;45269;43.568;22.244;2023-09-18T02:05:46;18.75;;;16.92;;
59458;SDS011;45269;43.568;22.244;2023-09-18T02:08:11;17.33;;;15.65;;
59458;SDS011;45269;43.568;22.244;2023-09-18T02:10:36;18.10;;;16.08;;
59458;SDS011;45269;43.568;22.244;2023-09-18T02:13:02;17.35;;;15.65;;
59458;SDS011;45269;43.568;22.244;2023-09-18T02:15:29;18.80;;;15.60;;
59458;SDS011;45269;43.568;22.244;2023-09-18T02:17:56;17.50;;;14.65;;
59458;SDS011;45269;43.568;22.244;2023-09-18T02:20:21;17.33;;;15.10;;
59458;SDS011;45269;43.568;22.244;2023-09-18T02:22:46;18.13;;;15.20;;
59458;SDS011;45269;43.568;22.244;2023-09-18T02:25:12;16.27;;;13.68;;
59458;SDS011;45269;43.568;22.244;2023-09-18T02:27:37;19.92;;;14.90;;
59458;SDS011;45269;43.568;22.244;2023-09-18T02:30:03;15.43;;;13.93;;
59458;SDS011;45269;43.568;22.244;2023-09-18T02:32:29;16.90;;;15.20;;
59458;SDS011;45269;43.568;22.244;2023-09-18T02:34:55;16.83;;;14.45;;
59458;SDS011;45269;43.568;22.244;2023-09-18T02:37:20;16.38;;;14.55;;
59458;SDS011;45269;43.568;22.244;2023-09-18T02:39:45;14.27;;;12.93;;
59458;SDS011;45269;43.568;22.244;2023-09-18T02:42:11;16.05;;;14.35;;
59458;SDS011;45269;43.568;22.244;2023-09-18T02:44:36;16.27;;;14.55;;
59458;SDS011;45269;43.568;22.244;2023-09-18T02:47:02;16.02;;;14.18;;
59458;SDS011;45269;43.568;22.244;2023-09-18T02:49:28;15.88;;;14.10;;
59458;SDS011;45269;43.568;22.244;2023-09-18T02:51:54;14.77;;;13.15;;
59458;SDS011;45269;43.568;22.244;2023-09-18T02:54:20;16.48;;;14.75;;
59458;SDS011;45269;43.568;22.244;2023-09-18T02:56:45;19.77;;;14.00;;
59458;SDS011;45269;43.568;22.244;2023-09-18T02:59:10;15.77;;;13.85;;
59458;SDS011;45269;43.568;22.244;2023-09-18T03:01:36;16.83;;;15.23;;
59458;SDS011;45269;43.568;22.244;2023-09-18T03:04:01;17.08;;;15.45;;
59458;SDS011;45269;43.568;22.244;2023-09-18T03:06:26;17.85;;;15.38;;
59458;SDS011;45269;43.568;22.244;2023-09-18T03:08:52;19.73;;;15.70;;
59458;SDS011;45269;43.568;22.244;2023-09-18T03:11:18;16.27;;;14.60;;
59458;SDS011;45269;43.568;22.244;2023-09-18T03:13:44;16.55;;;14.85;;
59458;SDS011;45269;43.568;22.244;2023-09-18T03:16:12;16.65;;;14.27;;
59458;SDS011;45269;43.568;22.244;2023-09-18T03:18:38;18.05;;;15.65;;
59458;SDS011;45269;43.568;22.244;2023-09-18T03:21:03;16.25;;;14.55;;
59458;SDS011;45269;43.568;22.244;2023-09-18T03:23:29;15.80;;;14.02;;
59458;SDS011;45269;43.568;22.244;2023-09-18T03:25:54;16.80;;;14.93;;
59458;SDS011;45269;43.568;22.244;2023-09-18T03:28:20;16.92;;;14.27;;
59458;SDS011;45269;43.568;22.244;2023-09-18T03:30:45;16.30;;;14.80;;
59458;SDS011;45269;43.568;22.244;2023-09-18T03:33:10;16.92;;;15.20;;
59458;SDS011;45269;43.568;22.244;2023-09-18T03:35:45;16.42;;;14.82;;
59458;SDS011;45269;43.568;22.244;2023-09-18T03:38:12;16.48;;;14.82;;
59458;SDS011;45269;43.568;22.244;2023-09-18T03:40:38;17.73;;;14.55;;
59458;SDS011;45269;43.568;22.244;2023-09-18T03:43:03;17.83;;;14.88;;
59458;SDS011;45269;43.568;22.244;2023-09-18T03:45:28;16.75;;;15.02;;
59458;SDS011;45269;43.568;22.244;2023-09-18T03:47:54;16.05;;;14.55;;
59458;SDS011;45269;43.568;22.244;2023-09-18T03:50:19;15.43;;;13.85;;
59458;SDS011;45269;43.568;22.244;2023-09-18T03:52:44;16.67;;;14.95;;
59458;SDS011;45269;43.568;22.244;2023-09-18T03:55:10;16.50;;;14.85;;
59458;SDS011;45269;43.568;22.244;2023-09-18T03:57:35;16.98;;;14.57;;
59458;SDS011;45269;43.568;22.244;2023-09-18T04:00:02;17.52;;;15.55;;
59458;SDS011;45269;43.568;22.244;2023-09-18T04:02:27;16.27;;;14.77;;
59458;SDS011;45269;43.568;22.244;2023-09-18T04:04:53;17.25;;;14.32;;
59458;SDS011;45269;43.568;22.244;2023-09-18T04:07:18;15.70;;;14.13;;
59458;SDS011;45269;43.568;22.244;2023-09-18T04:09:44;17.67;;;15.98;;
59458;SDS011;45269;43.568;22.244;2023-09-18T04:12:10;17.17;;;15.40;;
59458;SDS011;45269;43.568;22.244;2023-09-18T04:14:35;17.50;;;14.93;;
59458;SDS011;45269;43.568;22.244;2023-09-18T04:17:01;16.30;;;14.60;;
59458;SDS011;45269;43.568;22.244;2023-09-18T04:19:26;15.75;;;14.27;;
59458;SDS011;45269;43.568;22.244;2023-09-18T04:21:52;17.70;;;16.10;;
59458;SDS011;45269;43.568;22.244;2023-09-18T04:24:17;22.35;;;15.48;;
59458;SDS011;45269;43.568;22.244;2023-09-18T04:26:43;16.13;;;14.43;;
59458;SDS011;45269;43.568;22.244;2023-09-18T04:29:08;17.80;;;15.95;;
59458;SDS011;45269;43.568;22.244;2023-09-18T04:31:34;18.38;;;16.45;;
59458;SDS011;45269;43.568;22.244;2023-09-18T04:33:59;20.10;;;17.98;;
59458;SDS011;45269;43.568;22.244;2023-09-18T04:36:24;20.77;;;18.05;;
59458;SDS011;45269;43.568;22.244;2023-09-18T04:38:50;20.88;;;17.65;;
59458;SDS011;45269;43.568;22.244;2023-09-18T04:41:16;20.15;;;16.67;;
59458;SDS011;45269;43.568;22.244;2023-09-18T04:43:41;18.05;;;16.27;;
59458;SDS011;45269;43.568;22.244;2023-09-18T04:46:09;17.20;;;15.50;;
59458;SDS011;45269;43.568;22.244;2023-09-18T04:48:34;21.88;;;18.08;;
59458;SDS011;45269;43.568;22.244;2023-09-18T04:51:00;21.70;;;19.30;;
59458;SDS011;45269;43.568;22.244;2023-09-18T04:53:28;24.02;;;19.73;;
59458;SDS011;45269;43.568;22.244;2023-09-18T04:55:53;21.55;;;19.23;;
59458;SDS011;45269;43.568;22.244;2023-09-18T04:58:19;20.48;;;18.38;;
59458;SDS011;45269;43.568;22.244;2023-09-18T05:00:45;21.13;;;18.90;;
59458;SDS011;45269;43.568;22.244;2023-09-18T05:03:11;20.90;;;18.67;;
59458;SDS011;45269;43.568;22.244;2023-09-18T05:05:36;19.75;;;17.83;;
59458;SDS011;45269;43.568;22.244;2023-09-18T05:08:02;20.98;;;18.70;;
59458;SDS011;45269;43.568;22.244;2023-09-18T05:10:35;20.52;;;18.40;;
59458;SDS011;45269;43.568;22.244;2023-09-18T05:13:01;23.95;;;17.58;;
59458;SDS011;45269;43.568;22.244;2023-09-18T05:15:27;19.58;;;17.58;;
59458;SDS011;45269;43.568;22.244;2023-09-18T05:17:54;22.13;;;17.48;;
59458;SDS011;45269;43.568;22.244;2023-09-18T05:20:22;20.30;;;18.25;;
59458;SDS011;45269;43.568;22.244;2023-09-18T05:22:49;19.55;;;17.38;;
59458;SDS011;45269;43.568;22.244;2023-09-18T05:25:15;20.38;;;18.08;;
59458;SDS011;45269;43.568;22.244;2023-09-18T05:27:40;19.55;;;17.60;;
59458;SDS011;45269;43.568;22.244;2023-09-18T05:30:10;21.15;;;18.38;;
59458;SDS011;45269;43.568;22.244;2023-09-18T05:32:35;19.92;;;17.55;;
59458;SDS011;45269;43.568;22.244;2023-09-18T05:35:00;22.55;;;18.17;;
59458;SDS011;45269;43.568;22.244;2023-09-18T05:37:30;17.90;;;16.10;;
59458;SDS011;45269;43.568;22.244;2023-09-18T05:39:55;17.73;;;16.02;;
59458;SDS011;45269;43.568;22.244;2023-09-18T05:42:20;18.35;;;16.42;;
59458;SDS011;45269;43.568;22.244;2023-09-18T05:44:46;17.65;;;15.55;;
59458;SDS011;45269;43.568;22.244;2023-09-18T05:47:12;19.88;;;16.35;;
59458;SDS011;45269;43.568;22.244;2023-09-18T05:49:37;17.27;;;15.45;;
59458;SDS011;45269;43.568;22.244;2023-09-18T05:52:03;19.33;;;16.95;;
59458;SDS011;45269;43.568;22.244;2023-09-18T05:54:28;19.05;;;16.10;;
59458;SDS011;45269;43.568;22.244;2023-09-18T05:56:54;23.95;;;20.00;;
59458;SDS011;45269;43.568;22.244;2023-09-18T05:59:19;24.60;;;19.50;;
59458;SDS011;45269;43.568;22.244;2023-09-18T06:01:45;22.63;;;19.10;;
59458;SDS011;45269;43.568;22.244;2023-09-18T06:04:10;24.88;;;19.52;;
59458;SDS011;45269;43.568;22.244;2023-09-18T06:06:38;23.90;;;19.13;;
59458;SDS011;45269;43.568;22.244;2023-09-18T06:09:03;27.95;;;21.88;;
59458;SDS011;45269;43.568;22.244;2023-09-18T06:11:28;24.70;;;19.83;;
59458;SDS011;45269;43.568;22.244;2023-09-18T06:13:54;36.38;;;20.60;;
59458;SDS011;45269;43.568;22.244;2023-09-18T06:16:19;24.15;;;20.60;;
59458;SDS011;45269;43.568;22.244;2023-09-18T06:18:44;21.08;;;18.88;;
59458;SDS011;45269;43.568;22.244;2023-09-18T06:21:10;24.55;;;19.88;;
59458;SDS011;45269;43.568;22.244;2023-09-18T06:23:35;27.73;;;20.48;;
59458;SDS011;45269;43.568;22.244;2023-09-18T06:26:01;36.45;;;21.73;;
59458;SDS011;45269;43.568;22.244;2023-09-18T06:28:26;28.63;;;22.42;;
59458;SDS011;45269;43.568;22.244;2023-09-18T06:30:52;45.13;;;24.10;;
59458;SDS011;45269;43.568;22.244;2023-09-18T06:33:19;27.75;;;21.98;;
59458;SDS011;45269;43.568;22.244;2023-09-18T06:35:44;26.55;;;20.40;;
59458;SDS011;45269;43.568;22.244;2023-09-18T06:38:09;24.40;;;20.92;;
59458;SDS011;45269;43.568;22.244;2023-09-18T06:40:37;24.30;;;21.17;;
59458;SDS011;45269;43.568;22.244;2023-09-18T06:43:03;24.02;;;20.10;;
59458;SDS011;45269;43.568;22.244;2023-09-18T06:45:28;24.83;;;20.38;;
59458;SDS011;45269;43.568;22.244;2023-09-18T06:47:53;22.48;;;20.25;;
59458;SDS011;45269;43.568;22.244;2023-09-18T06:50:19;24.75;;;21.48;;
59458;SDS011;45269;43.568;22.244;2023-09-18T06:52:44;23.90;;;20.58;;
59458;SDS011;45269;43.568;22.244;2023-09-18T06:55:11;23.35;;;19.63;;
59458;SDS011;45269;43.568;22.244;2023-09-18T06:57:36;22.40;;;18.95;;
59458;SDS011;45269;43.568;22.244;2023-09-18T07:00:01;20.63;;;18.17;;
59458;SDS011;45269;43.568;22.244;2023-09-18T07:02:27;19.58;;;16.60;;
59458;SDS011;45269;43.568;22.244;2023-09-18T07:04:52;19.70;;;17.67;;
59458;SDS011;45269;43.568;22.244;2023-09-18T07:07:18;19.80;;;17.77;;
59458;SDS011;45269;43.568;22.244;2023-09-18T07:09:50;17.65;;;15.82;;
59458;SDS011;45269;43.568;22.244;2023-09-18T07:12:15;19.02;;;17.05;;
59458;SDS011;45269;43.568;22.244;2023-09-18T07:14:40;19.23;;;16.25;;
59458;SDS011;45269;43.568;22.244;2023-09-18T07:17:06;19.40;;;17.35;;
59458;SDS011;45269;43.568;22.244;2023-09-18T07:19:31;18.30;;;16.33;;
59458;SDS011;45269;43.568;22.244;2023-09-18T07:21:57;18.23;;;16.40;;
59458;SDS011;45269;43.568;22.244;2023-09-18T07:24:22;17.88;;;15.98;;
59458;SDS011;45269;43.568;22.244;2023-09-18T07:26:48;16.55;;;14.95;;
59458;SDS011;45269;43.568;22.244;2023-09-18T07:29:14;16.98;;;15.40;;
59458;SDS011;45269;43.568;22.244;2023-09-18T07:31:40;16.77;;;15.07;;
59458;SDS011;45269;43.568;22.244;2023-09-18T07:34:06;17.15;;;15.07;;
59458;SDS011;45269;43.568;22.244;2023-09-18T07:36:31;17.08;;;15.45;;
59458;SDS011;45269;43.568;22.244;2023-09-18T07:38:56;15.27;;;13.75;;
59458;SDS011;45269;43.568;22.244;2023-09-18T07:41:22;16.35;;;14.60;;
59458;SDS011;45269;43.568;22.244;2023-09-18T07:43:48;16.90;;;15.20;;
59458;SDS011;45269;43.568;22.244;2023-09-18T07:46:13;15.45;;;13.85;;
59458;SDS011;45269;43.568;22.244;2023-09-18T07:48:38;15.80;;;14.18;;
59458;SDS011;45269;43.568;22.244;2023-09-18T07:51:04;17.80;;;14.45;;
59458;SDS011;45269;43.568;22.244;2023-09-18T07:53:29;16.50;;;14.68;;
59458;SDS011;45269;43.568;22.244;2023-09-18T07:55:56;16.15;;;14.52;;
59458;SDS011;45269;43.568;22.244;2023-09-18T07:58:22;15.63;;;13.45;;
59458;SDS011;45269;43.568;22.244;2023-09-18T08:00:47;14.48;;;12.88;;
59458;SDS011;45269;43.568;22.244;2023-09-18T08:03:13;14.20;;;12.63;;
59458;SDS011;45269;43.568;22.244;2023-09-18T08:05:39;14.95;;;13.38;;
59458;SDS011;45269;43.568;22.244;2023-09-18T08:08:04;14.88;;;12.98;;
59458;SDS011;45269;43.568;22.244;2023-09-18T08:10:30;17.25;;;13.32;;
59458;SDS011;45269;43.568;22.244;2023-09-18T08:12:56;14.75;;;12.15;;
59458;SDS011;45269;43.568;22.244;2023-09-18T08:15:21;16.50;;;14.15;;
59458;SDS011;45269;43.568;22.244;2023-09-18T08:17:47;13.60;;;12.05;;
59458;SDS011;45269;43.568;22.244;2023-09-18T08:20:14;13.65;;;12.23;;
59458;SDS011;45269;43.568;22.244;2023-09-18T08:22:40;14.35;;;11.77;;
59458;SDS011;45269;43.568;22.244;2023-09-18T08:25:06;13.35;;;11.90;;
59458;SDS011;45269;43.568;22.244;2023-09-18T08:27:36;13.43;;;11.98;;
59458;SDS011;45269;43.568;22.244;2023-09-18T08:30:02;12.68;;;11.38;;
59458;SDS011;45269;43.568;22.244;2023-09-18T08:32:28;12.90;;;11.60;;
59458;SDS011;45269;43.568;22.244;2023-09-18T08:34:55;12.45;;;11.20;;
59458;SDS011;45269;43.568;22.244;2023-09-18T08:37:20;12.00;;;10.77;;
59458;SDS011;45269;43.568;22.244;2023-09-18T08:39:46;12.25;;;10.98;;
59458;SDS011;45269;43.568;22.244;2023-09-18T08:42:11;12.50;;;11.20;;
59458;SDS011;45269;43.568;22.244;2023-09-18T08:44:38;12.85;;;10.90;;
59458;SDS011;45269;43.568;22.244;2023-09-18T08:47:04;12.93;;;11.07;;
59458;SDS011;45269;43.568;22.244;2023-09-18T08:49:30;14.05;;;12.23;;
59458;SDS011;45269;43.568;22.244;2023-09-18T08:51:55;17.63;;;10.93;;
59458;SDS011;45269;43.568;22.244;2023-09-18T08:54:22;15.52;;;10.75;;
59458;SDS011;45269;43.568;22.244;2023-09-18T08:56:51;11.47;;;10.10;;
59458;SDS011;45269;43.568;22.244;2023-09-18T08:59:16;16.90;;;10.90;;
59458;SDS011;45269;43.568;22.244;2023-09-18T09:01:42;13.57;;;10.38;;
59458;SDS011;45269;43.568;22.244;2023-09-18T09:04:07;16.70;;;11.07;;
59458;SDS011;45269;43.568;22.244;2023-09-18T09:06:32;11.38;;;10.25;;
59458;SDS011;45269;43.568;22.244;2023-09-18T09:08:58;10.90;;;9.57;;
59458;SDS011;45269;43.568;22.244;2023-09-18T09:11:24;12.00;;;10.43;;
59458;SDS011;45269;43.568;22.244;2023-09-18T09:14:08;10.98;;;9.98;;
59458;SDS011;45269;43.568;22.244;2023-09-18T09:16:33;10.30;;;9.30;;
59458;SDS011;45269;43.568;22.244;2023-09-18T09:18:59;14.10;;;11.13;;
59458;SDS011;45269;43.568;22.244;2023-09-18T09:21:25;10.63;;;9.60;;
59458;SDS011;45269;43.568;22.244;2023-09-18T09:24:03;10.77;;;9.77;;
59458;SDS011;45269;43.568;22.244;2023-09-18T09:26:28;10.85;;;9.85;;
59458;SDS011;45269;43.568;22.244;2023-09-18T09:28:54;14.52;;;10.68;;
59458;SDS011;45269;43.568;22.244;2023-09-18T09:31:24;11.93;;;10.68;;
59458;SDS011;45269;43.568;22.244;2023-09-18T09:33:50;11.95;;;10.50;;
59458;SDS011;45269;43.568;22.244;2023-09-18T09:36:20;11.95;;;10.68;;
59458;SDS011;45269;43.568;22.244;2023-09-18T09:38:45;13.07;;;10.93;;
59458;SDS011;45269;43.568;22.244;2023-09-18T09:41:14;11.00;;;9.88;;
59458;SDS011;45269;43.568;22.244;2023-09-18T09:43:41;12.30;;;9.85;;
59458;SDS011;45269;43.568;22.244;2023-09-18T09:46:06;12.20;;;9.77;;
59458;SDS011;45269;43.568;22.244;2023-09-18T09:48:33;11.35;;;9.98;;
59458;SDS011;45269;43.568;22.244;2023-09-18T09:50:59;11.80;;;9.80;;
59458;SDS011;45269;43.568;22.244;2023-09-18T09:53:44;10.75;;;9.48;;
59458;SDS011;45269;43.568;22.244;2023-09-18T09:56:12;10.88;;;9.75;;
59458;SDS011;45269;43.568;22.244;2023-09-18T09:58:37;11.27;;;9.95;;
59458;SDS011;45269;43.568;22.244;2023-09-18T10:01:03;12.93;;;10.38;;
59458;SDS011;45269;43.568;22.244;2023-09-18T10:03:35;11.23;;;10.23;;
59458;SDS011;45269;43.568;22.244;2023-09-18T10:06:02;11.00;;;9.90;;
59458;SDS011;45269;43.568;22.244;2023-09-18T10:08:29;12.90;;;9.40;;
59458;SDS011;45269;43.568;22.244;2023-09-18T10:10:56;10.45;;;9.45;;
59458;SDS011;45269;43.568;22.244;2023-09-18T10:15:50;11.25;;;10.07;;
59458;SDS011;45269;43.568;22.244;2023-09-18T10:20:45;11.88;;;10.32;;
59458;SDS011;45269;43.568;22.244;2023-09-18T10:23:20;11.15;;;10.15;;
59458;SDS011;45269;43.568;22.244;2023-09-18T10:25:49;10.30;;;9.38;;
59458;SDS011;45269;43.568;22.244;2023-09-18T10:28:16;13.20;;;10.05;;
59458;SDS011;45269;43.568;22.244;2023-09-18T10:30:41;11.02;;;9.93;;
59458;SDS011;45269;43.568;22.244;2023-09-18T10:33:07;10.73;;;9.77;;
59458;SDS011;45269;43.568;22.244;2023-09-18T10:35:33;11.40;;;9.73;;
59458;SDS011;45269;43.568;22.244;2023-09-18T10:37:59;10.43;;;9.27;;
59458;SDS011;45269;43.568;22.244;2023-09-18T10:40:26;11.05;;;9.65;;
59458;SDS011;45269;43.568;22.244;2023-09-18T10:42:53;10.70;;;9.23;;
59458;SDS011;45269;43.568;22.244;2023-09-18T10:45:19;10.82;;;9.43;;
59458;SDS011;45269;43.568;22.244;2023-09-18T10:47:44;9.75;;;8.85;;
59458;SDS011;45269;43.568;22.244;2023-09-18T10:50:11;14.85;;;9.35;;
59458;SDS011;45269;43.568;22.244;2023-09-18T10:52:43;9.35;;;8.45;;
59458;SDS011;45269;43.568;22.244;2023-09-18T10:55:12;9.80;;;8.90;;
59458;SDS011;45269;43.568;22.244;2023-09-18T10:57:41;9.27;;;8.32;;
59458;SDS011;45269;43.568;22.244;2023-09-18T11:00:14;9.73;;;8.75;;
59458;SDS011;45269;43.568;22.244;2023-09-18T11:02:41;10.82;;;8.80;;
59458;SDS011;45269;43.568;22.244;2023-09-18T11:05:07;15.15;;;8.43;;
59458;SDS011;45269;43.568;22.244;2023-09-18T11:07:32;10.30;;;8.68;;
59458;SDS011;45269;43.568;22.244;2023-09-18T11:09:57;9.65;;;8.55;;
59458;SDS011;45269;43.568;22.244;2023-09-18T11:12:41;8.82;;;8.02;;
59458;SDS011;45269;43.568;22.244;2023-09-18T11:15:07;10.65;;;8.15;;
59458;SDS011;45269;43.568;22.244;2023-09-18T11:17:34;9.25;;;7.65;;
59458;SDS011;45269;43.568;22.244;2023-09-18T11:22:30;9.32;;;8.43;;
59458;SDS011;45269;43.568;22.244;2023-09-18T11:25:15;10.73;;;8.48;;
59458;SDS011;45269;43.568;22.244;2023-09-18T11:28:14;8.88;;;7.97;;
59458;SDS011;45269;43.568;22.244;2023-09-18T11:30:35;10.05;;;8.80;;
59458;SDS011;45269;43.568;22.244;2023-09-18T11:33:04;10.60;;;8.88;;
59458;SDS011;45269;43.568;22.244;2023-09-18T11:35:30;8.75;;;7.95;;
59458;SDS011;45269;43.568;22.244;2023-09-18T11:38:06;9.57;;;8.65;;
59458;SDS011;45269;43.568;22.244;2023-09-18T11:40:32;10.45;;;8.27;;
59458;SDS011;45269;43.568;22.244;2023-09-18T11:45:57;9.55;;;8.63;;
59458;SDS011;45269;43.568;22.244;2023-09-18T11:48:23;10.40;;;8.60;;
59458;SDS011;45269;43.568;22.244;2023-09-18T11:50:52;9.13;;;8.23;;
59458;SDS011;45269;43.568;22.244;2023-09-18T11:53:19;8.38;;;7.57;;
59458;SDS011;45269;43.568;22.244;2023-09-18T11:55:45;9.70;;;8.10;;
59458;SDS011;45269;43.568;22.244;2023-09-18T11:58:10;8.93;;;8.13;;
59458;SDS011;45269;43.568;22.244;2023-09-18T12:00:36;9.07;;;8.13;;
59458;SDS011;45269;43.568;22.244;2023-09-18T12:03:17;9.15;;;8.25;;
59458;SDS011;45269;43.568;22.244;2023-09-18T12:05:50;8.38;;;7.65;;
59458;SDS011;45269;43.568;22.244;2023-09-18T12:08:16;8.50;;;7.72;;
59458;SDS011;45269;43.568;22.244;2023-09-18T12:10:41;9.30;;;8.35;;
59458;SDS011;45269;43.568;22.244;2023-09-18T12:13:07;9.73;;;8.35;;
59458;SDS011;45269;43.568;22.244;2023-09-18T12:15:33;9.10;;;8.02;;
59458;SDS011;45269;43.568;22.244;2023-09-18T12:18:04;8.98;;;8.02;;
59458;SDS011;45269;43.568;22.244;2023-09-18T12:20:30;8.75;;;8.05;;
59458;SDS011;45269;43.568;22.244;2023-09-18T12:22:57;8.85;;;8.02;;
59458;SDS011;45269;43.568;22.244;2023-09-18T12:25:22;12.73;;;7.95;;
59458;SDS011;45269;43.568;22.244;2023-09-18T12:27:52;8.65;;;7.82;;
59458;SDS011;45269;43.568;22.244;2023-09-18T12:30:18;9.98;;;8.95;;
59458;SDS011;45269;43.568;22.244;2023-09-18T12:32:46;9.43;;;8.50;;
59458;SDS011;45269;43.568;22.244;2023-09-18T12:35:15;10.40;;;8.20;;
59458;SDS011;45269;43.568;22.244;2023-09-18T12:37:43;8.90;;;7.88;;
59458;SDS011;45269;43.568;22.244;2023-09-18T12:40:30;9.73;;;8.02;;
59458;SDS011;45269;43.568;22.244;2023-09-18T12:42:55;8.88;;;8.00;;
59458;SDS011;45269;43.568;22.244;2023-09-18T12:45:21;12.82;;;8.43;;
59458;SDS011;45269;43.568;22.244;2023-09-18T12:47:47;9.60;;;8.00;;
59458;SDS011;45269;43.568;22.244;2023-09-18T12:50:13;8.55;;;7.75;;
59458;SDS011;45269;43.568;22.244;2023-09-18T12:52:38;8.50;;;7.70;;
59458;SDS011;45269;43.568;22.244;2023-09-18T12:55:04;8.73;;;7.78;;
59458;SDS011;45269;43.568;22.244;2023-09-18T12:57:32;8.65;;;7.85;;
59458;SDS011;45269;43.568;22.244;2023-09-18T12:59:57;8.85;;;8.00;;
59458;SDS011;45269;43.568;22.244;2023-09-18T13:02:23;7.85;;;7.15;;
59458;SDS011;45269;43.568;22.244;2023-09-18T13:04:55;8.70;;;7.65;;
59458;SDS011;45269;43.568;22.244;2023-09-18T13:07:20;9.55;;;7.60;;
59458;SDS011;45269;43.568;22.244;2023-09-18T13:10:02;7.93;;;7.05;;
59458;SDS011;45269;43.568;22.244;2023-09-18T13:15:12;8.50;;;7.28;;
59458;SDS011;45269;43.568;22.244;2023-09-18T13:17:39;8.63;;;6.70;;
59458;SDS011;45269;43.568;22.244;2023-09-18T13:20:12;7.15;;;6.57;;
59458;SDS011;45269;43.568;22.244;2023-09-18T13:22:38;8.10;;;6.32;;
59458;SDS011;45269;43.568;22.244;2023-09-18T13:25:04;7.47;;;6.10;;
59458;SDS011;45269;43.568;22.244;2023-09-18T13:27:30;8.38;;;6.95;;
59458;SDS011;45269;43.568;22.244;2023-09-18T13:29:55;7.45;;;6.82;;
59458;SDS011;45269;43.568;22.244;2023-09-18T13:32:21;7.10;;;6.40;;
59458;SDS011;45269;43.568;22.244;2023-09-18T13:34:47;7.40;;;6.68;;
59458;SDS011;45269;43.568;22.244;2023-09-18T13:37:13;7.20;;;6.60;;
59458;SDS011;45269;43.568;22.244;2023-09-18T13:39:39;7.03;;;6.43;;
59458;SDS011;45269;43.568;22.244;2023-09-18T13:42:04;7.88;;;6.93;;
59458;SDS011;45269;43.568;22.244;2023-09-18T13:44:30;8.23;;;7.07;;
59458;SDS011;45269;43.568;22.244;2023-09-18T13:46:56;8.20;;;7.30;;
59458;SDS011;45269;43.568;22.244;2023-09-18T13:49:21;9.18;;;7.68;;
59458;SDS011;45269;43.568;22.244;2023-09-18T13:51:47;9.75;;;7.30;;
59458;SDS011;45269;43.568;22.244;2023-09-18T13:54:15;8.30;;;7.45;;
59458;SDS011;45269;43.568;22.244;2023-09-18T13:56:41;7.90;;;6.60;;
59458;SDS011;45269;43.568;22.244;2023-09-18T13:59:08;7.35;;;6.50;;
59458;SDS011;45269;43.568;22.244;2023-09-18T14:01:35;7.45;;;6.68;;
59458;SDS011;45269;43.568;22.244;2023-09-18T14:04:00;7.75;;;6.95;;
59458;SDS011;45269;43.568;22.244;2023-09-18T14:06:25;7.70;;;6.90;;
59458;SDS011;45269;43.568;22.244;2023-09-18T14:08:51;7.15;;;6.32;;
59458;SDS011;45269;43.568;22.244;2023-09-18T14:11:17;7.78;;;6.93;;
59458;SDS011;45269;43.568;22.244;2023-09-18T14:13:43;6.72;;;6.03;;
59458;SDS011;45269;43.568;22.244;2023-09-18T14:16:08;8.57;;;6.57;;
59458;SDS011;45269;43.568;22.244;2023-09-18T14:18:35;7.47;;;6.68;;
59458;SDS011;45269;43.568;22.244;2023-09-18T14:21:01;6.72;;;6.05;;
59458;SDS011;45269;43.568;22.244;2023-09-18T14:23:26;9.98;;;6.60;;
59458;SDS011;45269;43.568;22.244;2023-09-18T14:25:52;7.03;;;6.40;;